sensor_id;sensor_type;location;lat;lon;timestamp;P1;durP1;ratioP1;P2;durP2;ratioP2
40993;SDS011;26722;43.212;27.932;2023-12-04T00:02:22;14.48;;;7.90;;
40993;SDS011;26722;43.212;27.932;2023-12-04T00:04:47;13.30;;;8.68;;
40993;SDS011;26722;43.212;27.932;2023-12-04T00:07:12;14.82;;;8.48;;
40993;SDS011;26722;43.212;27.932;2023-12-04T00:09:38;15.63;;;8.77;;
40993;SDS011;26722;43.212;27.932;2023-12-04T00:12:03;15.95;;;9.38;;
40993;SDS011;26722;43.212;27.932;2023-12-04T00:14:29;14.57;;;8.73;;
40993;SDS011;26722;43.212;27.932;2023-12-04T00:16:55;15.18;;;8.95;;
40993;SDS011;26722;43.212;27.932;2023-12-04T00:19:20;16.63;;;9.55;;
40993;SDS011;26722;43.212;27.932;2023-12-04T00:21:45;14.30;;;9.23;;
40993;SDS011;26722;43.212;27.932;2023-12-04T00:24:11;16.45;;;8.73;;
40993;SDS011;26722;43.212;27.932;2023-12-04T00:26:36;16.27;;;9.98;;
40993;SDS011;26722;43.212;27.932;2023-12-04T00:29:02;15.68;;;9.80;;
40993;SDS011;26722;43.212;27.932;2023-12-04T00:31:27;16.80;;;10.20;;
40993;SDS011;26722;43.212;27.932;2023-12-04T00:33:53;18.52;;;10.63;;
40993;SDS011;26722;43.212;27.932;2023-12-04T00:36:18;16.95;;;10.10;;
40993;SDS011;26722;43.212;27.932;2023-12-04T00:38:45;17.60;;;10.23;;
40993;SDS011;26722;43.212;27.932;2023-12-04T00:41:10;19.33;;;10.10;;
40993;SDS011;26722;43.212;27.932;2023-12-04T00:43:36;17.00;;;10.20;;
40993;SDS011;26722;43.212;27.932;2023-12-04T00:46:02;18.92;;;10.07;;
40993;SDS011;26722;43.212;27.932;2023-12-04T00:48:28;16.50;;;10.02;;
40993;SDS011;26722;43.212;27.932;2023-12-04T00:50:54;17.40;;;9.90;;
40993;SDS011;26722;43.212;27.932;2023-12-04T00:53:19;19.00;;;10.80;;
40993;SDS011;26722;43.212;27.932;2023-12-04T00:55:45;19.27;;;10.48;;
40993;SDS011;26722;43.212;27.932;2023-12-04T00:58:10;17.55;;;11.07;;
40993;SDS011;26722;43.212;27.932;2023-12-04T01:00:36;22.35;;;12.05;;
40993;SDS011;26722;43.212;27.932;2023-12-04T01:03:01;18.67;;;11.68;;
40993;SDS011;26722;43.212;27.932;2023-12-04T01:05:27;20.75;;;11.18;;
40993;SDS011;26722;43.212;27.932;2023-12-04T01:07:52;21.52;;;11.68;;
40993;SDS011;26722;43.212;27.932;2023-12-04T01:10:18;19.70;;;12.25;;
40993;SDS011;26722;43.212;27.932;2023-12-04T01:12:43;21.00;;;11.73;;
40993;SDS011;26722;43.212;27.932;2023-12-04T01:15:09;20.27;;;11.77;;
40993;SDS011;26722;43.212;27.932;2023-12-04T01:17:34;24.25;;;11.73;;
40993;SDS011;26722;43.212;27.932;2023-12-04T01:20:00;20.08;;;11.65;;
40993;SDS011;26722;43.212;27.932;2023-12-04T01:22:26;23.60;;;12.48;;
40993;SDS011;26722;43.212;27.932;2023-12-04T01:24:51;19.83;;;11.65;;
40993;SDS011;26722;43.212;27.932;2023-12-04T01:27:17;21.13;;;12.15;;
40993;SDS011;26722;43.212;27.932;2023-12-04T01:29:42;21.25;;;11.98;;
40993;SDS011;26722;43.212;27.932;2023-12-04T01:32:08;21.35;;;11.90;;
40993;SDS011;26722;43.212;27.932;2023-12-04T01:34:33;19.55;;;11.30;;
40993;SDS011;26722;43.212;27.932;2023-12-04T01:36:59;18.80;;;11.15;;
40993;SDS011;26722;43.212;27.932;2023-12-04T01:39:24;18.42;;;10.88;;
40993;SDS011;26722;43.212;27.932;2023-12-04T01:41:49;18.40;;;10.80;;
40993;SDS011;26722;43.212;27.932;2023-12-04T01:44:15;18.65;;;10.75;;
40993;SDS011;26722;43.212;27.932;2023-12-04T01:46:40;19.42;;;10.02;;
40993;SDS011;26722;43.212;27.932;2023-12-04T01:49:07;20.83;;;11.25;;
40993;SDS011;26722;43.212;27.932;2023-12-04T01:51:33;15.60;;;9.82;;
40993;SDS011;26722;43.212;27.932;2023-12-04T01:53:59;17.33;;;9.68;;
40993;SDS011;26722;43.212;27.932;2023-12-04T01:56:26;15.35;;;9.02;;
40993;SDS011;26722;43.212;27.932;2023-12-04T01:58:52;16.83;;;9.50;;
40993;SDS011;26722;43.212;27.932;2023-12-04T02:01:18;16.08;;;9.55;;
40993;SDS011;26722;43.212;27.932;2023-12-04T02:03:45;15.90;;;9.32;;
40993;SDS011;26722;43.212;27.932;2023-12-04T02:06:11;16.27;;;9.00;;
40993;SDS011;26722;43.212;27.932;2023-12-04T02:08:37;14.77;;;9.13;;
40993;SDS011;26722;43.212;27.932;2023-12-04T02:11:06;17.25;;;8.55;;
40993;SDS011;26722;43.212;27.932;2023-12-04T02:13:31;15.90;;;9.40;;
40993;SDS011;26722;43.212;27.932;2023-12-04T02:15:57;16.45;;;9.88;;
40993;SDS011;26722;43.212;27.932;2023-12-04T02:18:26;17.75;;;9.90;;
40993;SDS011;26722;43.212;27.932;2023-12-04T02:20:51;18.05;;;10.80;;
40993;SDS011;26722;43.212;27.932;2023-12-04T02:23:18;14.35;;;9.13;;
40993;SDS011;26722;43.212;27.932;2023-12-04T02:25:43;20.20;;;10.63;;
40993;SDS011;26722;43.212;27.932;2023-12-04T02:28:10;18.80;;;11.10;;
40993;SDS011;26722;43.212;27.932;2023-12-04T02:30:38;21.73;;;11.70;;
40993;SDS011;26722;43.212;27.932;2023-12-04T02:33:08;23.98;;;12.45;;
40993;SDS011;26722;43.212;27.932;2023-12-04T02:35:36;20.85;;;11.60;;
40993;SDS011;26722;43.212;27.932;2023-12-04T02:38:04;22.50;;;11.68;;
40993;SDS011;26722;43.212;27.932;2023-12-04T02:40:30;19.25;;;11.57;;
40993;SDS011;26722;43.212;27.932;2023-12-04T02:42:55;22.08;;;12.32;;
40993;SDS011;26722;43.212;27.932;2023-12-04T02:45:21;17.77;;;10.93;;
40993;SDS011;26722;43.212;27.932;2023-12-04T02:47:46;21.40;;;11.52;;
40993;SDS011;26722;43.212;27.932;2023-12-04T02:50:12;23.10;;;12.70;;
40993;SDS011;26722;43.212;27.932;2023-12-04T02:52:37;23.75;;;12.90;;
40993;SDS011;26722;43.212;27.932;2023-12-04T02:55:03;23.23;;;13.10;;
40993;SDS011;26722;43.212;27.932;2023-12-04T02:57:29;23.10;;;13.43;;
40993;SDS011;26722;43.212;27.932;2023-12-04T02:59:54;23.23;;;12.95;;
40993;SDS011;26722;43.212;27.932;2023-12-04T03:02:20;24.30;;;12.93;;
40993;SDS011;26722;43.212;27.932;2023-12-04T03:04:45;23.65;;;13.40;;
40993;SDS011;26722;43.212;27.932;2023-12-04T03:07:11;23.52;;;13.18;;
40993;SDS011;26722;43.212;27.932;2023-12-04T03:09:36;25.10;;;12.80;;
40993;SDS011;26722;43.212;27.932;2023-12-04T03:12:02;24.42;;;12.95;;
40993;SDS011;26722;43.212;27.932;2023-12-04T03:14:27;27.27;;;13.98;;
40993;SDS011;26722;43.212;27.932;2023-12-04T03:16:53;27.10;;;14.15;;
40993;SDS011;26722;43.212;27.932;2023-12-04T03:19:18;26.52;;;14.35;;
40993;SDS011;26722;43.212;27.932;2023-12-04T03:21:44;25.23;;;13.63;;
40993;SDS011;26722;43.212;27.932;2023-12-04T03:24:09;24.85;;;13.27;;
40993;SDS011;26722;43.212;27.932;2023-12-04T03:26:35;24.50;;;13.95;;
40993;SDS011;26722;43.212;27.932;2023-12-04T03:29:00;25.83;;;13.52;;
40993;SDS011;26722;43.212;27.932;2023-12-04T03:31:26;25.00;;;13.43;;
40993;SDS011;26722;43.212;27.932;2023-12-04T03:33:51;26.05;;;14.23;;
40993;SDS011;26722;43.212;27.932;2023-12-04T03:36:17;24.15;;;12.93;;
40993;SDS011;26722;43.212;27.932;2023-12-04T03:38:42;26.35;;;13.75;;
40993;SDS011;26722;43.212;27.932;2023-12-04T03:41:14;25.92;;;13.55;;
40993;SDS011;26722;43.212;27.932;2023-12-04T03:43:40;22.70;;;12.93;;
40993;SDS011;26722;43.212;27.932;2023-12-04T03:46:06;25.95;;;13.93;;
40993;SDS011;26722;43.212;27.932;2023-12-04T03:48:31;25.58;;;14.23;;
40993;SDS011;26722;43.212;27.932;2023-12-04T03:50:57;28.52;;;14.57;;
40993;SDS011;26722;43.212;27.932;2023-12-04T03:53:23;27.42;;;13.65;;
40993;SDS011;26722;43.212;27.932;2023-12-04T03:55:48;24.60;;;13.23;;
40993;SDS011;26722;43.212;27.932;2023-12-04T03:58:14;22.70;;;13.88;;
40993;SDS011;26722;43.212;27.932;2023-12-04T04:00:39;23.60;;;13.43;;
40993;SDS011;26722;43.212;27.932;2023-12-04T04:03:08;28.08;;;14.05;;
40993;SDS011;26722;43.212;27.932;2023-12-04T04:05:34;29.83;;;15.43;;
40993;SDS011;26722;43.212;27.932;2023-12-04T04:08:00;29.52;;;14.77;;
40993;SDS011;26722;43.212;27.932;2023-12-04T04:10:25;29.00;;;15.20;;
40993;SDS011;26722;43.212;27.932;2023-12-04T04:12:50;30.63;;;15.52;;
40993;SDS011;26722;43.212;27.932;2023-12-04T04:15:16;30.38;;;15.90;;
40993;SDS011;26722;43.212;27.932;2023-12-04T04:17:41;27.73;;;15.30;;
40993;SDS011;26722;43.212;27.932;2023-12-04T04:20:07;31.50;;;17.00;;
40993;SDS011;26722;43.212;27.932;2023-12-04T04:22:33;29.42;;;16.15;;
40993;SDS011;26722;43.212;27.932;2023-12-04T04:25:03;29.05;;;16.77;;
40993;SDS011;26722;43.212;27.932;2023-12-04T04:27:30;32.10;;;16.58;;
40993;SDS011;26722;43.212;27.932;2023-12-04T04:29:55;32.63;;;16.88;;
40993;SDS011;26722;43.212;27.932;2023-12-04T04:32:20;29.80;;;16.20;;
40993;SDS011;26722;43.212;27.932;2023-12-04T04:34:46;34.25;;;16.35;;
40993;SDS011;26722;43.212;27.932;2023-12-04T04:37:12;31.45;;;16.13;;
40993;SDS011;26722;43.212;27.932;2023-12-04T04:39:39;31.30;;;16.00;;
40993;SDS011;26722;43.212;27.932;2023-12-04T04:42:04;32.10;;;16.02;;
40993;SDS011;26722;43.212;27.932;2023-12-04T04:44:30;29.17;;;16.05;;
40993;SDS011;26722;43.212;27.932;2023-12-04T04:46:55;29.55;;;15.25;;
40993;SDS011;26722;43.212;27.932;2023-12-04T04:49:21;28.65;;;15.45;;
40993;SDS011;26722;43.212;27.932;2023-12-04T04:51:47;30.40;;;15.68;;
40993;SDS011;26722;43.212;27.932;2023-12-04T04:54:12;31.40;;;16.08;;
40993;SDS011;26722;43.212;27.932;2023-12-04T04:56:37;31.95;;;16.20;;
40993;SDS011;26722;43.212;27.932;2023-12-04T04:59:04;32.40;;;17.83;;
40993;SDS011;26722;43.212;27.932;2023-12-04T05:01:30;32.58;;;16.02;;
40993;SDS011;26722;43.212;27.932;2023-12-04T05:03:55;34.97;;;16.20;;
40993;SDS011;26722;43.212;27.932;2023-12-04T05:06:21;31.23;;;16.15;;
40993;SDS011;26722;43.212;27.932;2023-12-04T05:08:47;27.25;;;14.20;;
40993;SDS011;26722;43.212;27.932;2023-12-04T05:11:16;34.38;;;15.57;;
40993;SDS011;26722;43.212;27.932;2023-12-04T05:13:42;28.75;;;15.63;;
40993;SDS011;26722;43.212;27.932;2023-12-04T05:16:07;35.92;;;17.27;;
40993;SDS011;26722;43.212;27.932;2023-12-04T05:18:33;37.45;;;17.52;;
40993;SDS011;26722;43.212;27.932;2023-12-04T05:20:59;36.05;;;18.55;;
40993;SDS011;26722;43.212;27.932;2023-12-04T05:23:24;45.20;;;22.23;;
40993;SDS011;26722;43.212;27.932;2023-12-04T05:25:50;40.53;;;21.23;;
40993;SDS011;26722;43.212;27.932;2023-12-04T05:28:15;54.15;;;24.58;;
40993;SDS011;26722;43.212;27.932;2023-12-04T05:30:40;43.28;;;20.65;;
40993;SDS011;26722;43.212;27.932;2023-12-04T05:33:06;43.38;;;20.88;;
40993;SDS011;26722;43.212;27.932;2023-12-04T05:35:31;32.47;;;17.88;;
40993;SDS011;26722;43.212;27.932;2023-12-04T05:37:59;34.70;;;17.83;;
40993;SDS011;26722;43.212;27.932;2023-12-04T05:40:25;31.00;;;16.48;;
40993;SDS011;26722;43.212;27.932;2023-12-04T05:42:50;32.65;;;14.55;;
40993;SDS011;26722;43.212;27.932;2023-12-04T05:45:16;31.48;;;17.08;;
40993;SDS011;26722;43.212;27.932;2023-12-04T05:47:41;30.90;;;15.27;;
40993;SDS011;26722;43.212;27.932;2023-12-04T05:50:07;34.47;;;16.63;;
40993;SDS011;26722;43.212;27.932;2023-12-04T05:52:33;28.52;;;14.75;;
40993;SDS011;26722;43.212;27.932;2023-12-04T05:54:58;60.58;;;21.80;;
40993;SDS011;26722;43.212;27.932;2023-12-04T05:57:23;51.63;;;19.38;;
40993;SDS011;26722;43.212;27.932;2023-12-04T05:59:49;53.45;;;20.13;;
40993;SDS011;26722;43.212;27.932;2023-12-04T06:02:14;46.03;;;18.90;;
40993;SDS011;26722;43.212;27.932;2023-12-04T06:04:40;65.22;;;22.90;;
40993;SDS011;26722;43.212;27.932;2023-12-04T06:07:06;45.60;;;19.48;;
40993;SDS011;26722;43.212;27.932;2023-12-04T06:09:32;42.80;;;19.73;;
40993;SDS011;26722;43.212;27.932;2023-12-04T06:11:57;30.83;;;16.13;;
40993;SDS011;26722;43.212;27.932;2023-12-04T06:14:23;30.52;;;15.15;;
40993;SDS011;26722;43.212;27.932;2023-12-04T06:16:48;28.58;;;14.90;;
40993;SDS011;26722;43.212;27.932;2023-12-04T06:19:14;31.75;;;15.25;;
40993;SDS011;26722;43.212;27.932;2023-12-04T06:21:39;29.98;;;15.82;;
40993;SDS011;26722;43.212;27.932;2023-12-04T06:24:05;32.78;;;15.10;;
40993;SDS011;26722;43.212;27.932;2023-12-04T06:26:33;31.70;;;15.20;;
40993;SDS011;26722;43.212;27.932;2023-12-04T06:29:01;33.25;;;16.05;;
40993;SDS011;26722;43.212;27.932;2023-12-04T06:31:27;29.17;;;13.85;;
40993;SDS011;26722;43.212;27.932;2023-12-04T06:33:52;24.20;;;13.15;;
40993;SDS011;26722;43.212;27.932;2023-12-04T06:36:18;30.13;;;14.50;;
40993;SDS011;26722;43.212;27.932;2023-12-04T06:38:45;26.30;;;14.60;;
40993;SDS011;26722;43.212;27.932;2023-12-04T06:41:13;27.50;;;14.23;;
40993;SDS011;26722;43.212;27.932;2023-12-04T06:43:38;26.40;;;13.50;;
40993;SDS011;26722;43.212;27.932;2023-12-04T06:46:04;31.73;;;15.02;;
40993;SDS011;26722;43.212;27.932;2023-12-04T06:48:30;32.78;;;14.05;;
40993;SDS011;26722;43.212;27.932;2023-12-04T06:50:57;26.25;;;13.45;;
40993;SDS011;26722;43.212;27.932;2023-12-04T06:53:23;30.10;;;14.82;;
40993;SDS011;26722;43.212;27.932;2023-12-04T06:55:48;28.88;;;14.43;;
40993;SDS011;26722;43.212;27.932;2023-12-04T06:58:13;26.17;;;14.15;;
40993;SDS011;26722;43.212;27.932;2023-12-04T07:00:39;28.58;;;14.98;;
40993;SDS011;26722;43.212;27.932;2023-12-04T07:03:04;39.40;;;16.85;;
40993;SDS011;26722;43.212;27.932;2023-12-04T07:05:30;31.67;;;15.93;;
40993;SDS011;26722;43.212;27.932;2023-12-04T07:07:55;36.25;;;16.67;;
40993;SDS011;26722;43.212;27.932;2023-12-04T07:10:21;36.50;;;17.05;;
40993;SDS011;26722;43.212;27.932;2023-12-04T07:12:46;35.95;;;16.17;;
40993;SDS011;26722;43.212;27.932;2023-12-04T07:15:12;29.25;;;15.45;;
40993;SDS011;26722;43.212;27.932;2023-12-04T07:17:37;33.50;;;14.98;;
40993;SDS011;26722;43.212;27.932;2023-12-04T07:20:04;31.08;;;15.80;;
40993;SDS011;26722;43.212;27.932;2023-12-04T07:22:33;27.33;;;15.60;;
40993;SDS011;26722;43.212;27.932;2023-12-04T07:24:59;28.55;;;15.30;;
40993;SDS011;26722;43.212;27.932;2023-12-04T07:27:25;29.60;;;15.07;;
40993;SDS011;26722;43.212;27.932;2023-12-04T07:29:50;35.65;;;16.90;;
40993;SDS011;26722;43.212;27.932;2023-12-04T07:32:16;40.65;;;18.40;;
40993;SDS011;26722;43.212;27.932;2023-12-04T07:34:43;29.98;;;14.80;;
40993;SDS011;26722;43.212;27.932;2023-12-04T07:37:08;31.98;;;15.80;;
40993;SDS011;26722;43.212;27.932;2023-12-04T07:39:34;35.17;;;15.90;;
40993;SDS011;26722;43.212;27.932;2023-12-04T07:41:59;30.58;;;16.35;;
40993;SDS011;26722;43.212;27.932;2023-12-04T07:44:25;39.50;;;17.48;;
40993;SDS011;26722;43.212;27.932;2023-12-04T07:46:50;28.83;;;15.32;;
40993;SDS011;26722;43.212;27.932;2023-12-04T07:49:16;31.88;;;14.85;;
40993;SDS011;26722;43.212;27.932;2023-12-04T07:51:41;27.75;;;14.52;;
40993;SDS011;26722;43.212;27.932;2023-12-04T07:54:07;27.80;;;14.63;;
40993;SDS011;26722;43.212;27.932;2023-12-04T07:56:32;30.95;;;14.80;;
40993;SDS011;26722;43.212;27.932;2023-12-04T07:58:58;26.02;;;13.18;;
40993;SDS011;26722;43.212;27.932;2023-12-04T08:01:23;35.13;;;15.98;;
40993;SDS011;26722;43.212;27.932;2023-12-04T08:03:49;34.03;;;15.70;;
40993;SDS011;26722;43.212;27.932;2023-12-04T08:06:14;25.70;;;13.88;;
40993;SDS011;26722;43.212;27.932;2023-12-04T08:08:43;28.48;;;15.07;;
40993;SDS011;26722;43.212;27.932;2023-12-04T08:11:09;27.63;;;13.85;;
40993;SDS011;26722;43.212;27.932;2023-12-04T08:13:35;31.83;;;16.02;;
40993;SDS011;26722;43.212;27.932;2023-12-04T08:16:00;27.85;;;15.02;;
40993;SDS011;26722;43.212;27.932;2023-12-04T08:18:26;33.97;;;15.52;;
40993;SDS011;26722;43.212;27.932;2023-12-04T08:20:51;29.88;;;15.13;;
40993;SDS011;26722;43.212;27.932;2023-12-04T08:23:16;32.33;;;15.98;;
40993;SDS011;26722;43.212;27.932;2023-12-04T08:25:42;30.70;;;14.88;;
40993;SDS011;26722;43.212;27.932;2023-12-04T08:28:07;29.67;;;13.65;;
40993;SDS011;26722;43.212;27.932;2023-12-04T08:30:33;30.38;;;15.13;;
40993;SDS011;26722;43.212;27.932;2023-12-04T08:32:59;27.02;;;13.68;;
40993;SDS011;26722;43.212;27.932;2023-12-04T08:35:24;30.60;;;15.48;;
40993;SDS011;26722;43.212;27.932;2023-12-04T08:37:50;29.55;;;14.68;;
40993;SDS011;26722;43.212;27.932;2023-12-04T08:40:16;29.42;;;14.63;;
40993;SDS011;26722;43.212;27.932;2023-12-04T08:42:42;29.98;;;16.02;;
40993;SDS011;26722;43.212;27.932;2023-12-04T08:45:09;33.60;;;15.10;;
40993;SDS011;26722;43.212;27.932;2023-12-04T08:47:35;31.20;;;15.80;;
40993;SDS011;26722;43.212;27.932;2023-12-04T08:50:00;28.50;;;14.82;;
40993;SDS011;26722;43.212;27.932;2023-12-04T08:52:26;30.38;;;13.70;;
40993;SDS011;26722;43.212;27.932;2023-12-04T08:54:51;37.92;;;16.38;;
40993;SDS011;26722;43.212;27.932;2023-12-04T08:57:19;32.97;;;15.77;;
40993;SDS011;26722;43.212;27.932;2023-12-04T08:59:44;37.80;;;17.08;;
40993;SDS011;26722;43.212;27.932;2023-12-04T09:02:09;33.55;;;17.02;;
40993;SDS011;26722;43.212;27.932;2023-12-04T09:04:35;30.70;;;14.85;;
40993;SDS011;26722;43.212;27.932;2023-12-04T09:07:00;37.15;;;15.68;;
40993;SDS011;26722;43.212;27.932;2023-12-04T09:09:26;31.10;;;15.95;;
40993;SDS011;26722;43.212;27.932;2023-12-04T09:11:51;29.77;;;15.25;;
40993;SDS011;26722;43.212;27.932;2023-12-04T09:14:17;29.95;;;14.02;;
40993;SDS011;26722;43.212;27.932;2023-12-04T09:16:42;28.83;;;14.60;;
40993;SDS011;26722;43.212;27.932;2023-12-04T09:19:08;28.90;;;13.93;;
40993;SDS011;26722;43.212;27.932;2023-12-04T09:21:33;26.85;;;14.20;;
40993;SDS011;26722;43.212;27.932;2023-12-04T09:24:00;29.20;;;14.00;;
40993;SDS011;26722;43.212;27.932;2023-12-04T09:26:26;31.38;;;15.20;;
40993;SDS011;26722;43.212;27.932;2023-12-04T09:28:51;31.77;;;15.50;;
40993;SDS011;26722;43.212;27.932;2023-12-04T09:31:17;29.42;;;14.35;;
40993;SDS011;26722;43.212;27.932;2023-12-04T09:33:43;29.75;;;14.55;;
40993;SDS011;26722;43.212;27.932;2023-12-04T09:36:08;32.47;;;14.52;;
40993;SDS011;26722;43.212;27.932;2023-12-04T09:38:34;31.33;;;15.43;;
40993;SDS011;26722;43.212;27.932;2023-12-04T09:41:01;32.45;;;17.17;;
40993;SDS011;26722;43.212;27.932;2023-12-04T09:43:33;32.55;;;15.13;;
40993;SDS011;26722;43.212;27.932;2023-12-04T09:45:59;29.60;;;14.20;;
40993;SDS011;26722;43.212;27.932;2023-12-04T09:48:26;32.38;;;15.32;;
40993;SDS011;26722;43.212;27.932;2023-12-04T09:50:52;30.95;;;14.68;;
40993;SDS011;26722;43.212;27.932;2023-12-04T09:53:18;34.95;;;17.30;;
40993;SDS011;26722;43.212;27.932;2023-12-04T09:55:48;48.67;;;18.45;;
40993;SDS011;26722;43.212;27.932;2023-12-04T09:58:15;42.00;;;18.10;;
40993;SDS011;26722;43.212;27.932;2023-12-04T10:00:45;38.33;;;16.75;;
40993;SDS011;26722;43.212;27.932;2023-12-04T10:03:11;36.47;;;16.48;;
40993;SDS011;26722;43.212;27.932;2023-12-04T10:05:40;37.10;;;16.67;;
40993;SDS011;26722;43.212;27.932;2023-12-04T10:08:09;33.42;;;16.30;;
40993;SDS011;26722;43.212;27.932;2023-12-04T10:10:34;37.05;;;17.08;;
40993;SDS011;26722;43.212;27.932;2023-12-04T10:13:00;37.00;;;16.00;;
40993;SDS011;26722;43.212;27.932;2023-12-04T10:15:25;38.90;;;17.45;;
40993;SDS011;26722;43.212;27.932;2023-12-04T10:17:51;36.17;;;15.20;;
40993;SDS011;26722;43.212;27.932;2023-12-04T10:20:19;31.48;;;15.43;;
40993;SDS011;26722;43.212;27.932;2023-12-04T10:22:59;32.10;;;15.52;;
40993;SDS011;26722;43.212;27.932;2023-12-04T10:25:28;35.55;;;15.75;;
40993;SDS011;26722;43.212;27.932;2023-12-04T10:28:12;40.67;;;17.42;;
40993;SDS011;26722;43.212;27.932;2023-12-04T10:30:40;38.42;;;17.35;;
40993;SDS011;26722;43.212;27.932;2023-12-04T10:33:06;33.05;;;16.05;;
40993;SDS011;26722;43.212;27.932;2023-12-04T10:35:32;45.72;;;18.65;;
40993;SDS011;26722;43.212;27.932;2023-12-04T10:38:01;37.63;;;16.67;;
40993;SDS011;26722;43.212;27.932;2023-12-04T10:40:31;32.13;;;15.38;;
40993;SDS011;26722;43.212;27.932;2023-12-04T10:45:49;50.33;;;18.50;;
40993;SDS011;26722;43.212;27.932;2023-12-04T10:48:16;28.60;;;15.02;;
40993;SDS011;26722;43.212;27.932;2023-12-04T10:50:47;30.13;;;14.50;;
40993;SDS011;26722;43.212;27.932;2023-12-04T10:53:13;32.58;;;15.05;;
40993;SDS011;26722;43.212;27.932;2023-12-04T10:55:40;34.45;;;15.95;;
40993;SDS011;26722;43.212;27.932;2023-12-04T10:58:07;29.55;;;15.25;;
40993;SDS011;26722;43.212;27.932;2023-12-04T11:00:44;28.58;;;13.88;;
40993;SDS011;26722;43.212;27.932;2023-12-04T11:03:20;32.40;;;15.32;;
40993;SDS011;26722;43.212;27.932;2023-12-04T11:05:54;26.57;;;12.93;;
40993;SDS011;26722;43.212;27.932;2023-12-04T11:08:20;35.63;;;14.48;;
40993;SDS011;26722;43.212;27.932;2023-12-04T11:11:03;34.85;;;15.38;;
40993;SDS011;26722;43.212;27.932;2023-12-04T11:13:34;30.02;;;14.00;;
40993;SDS011;26722;43.212;27.932;2023-12-04T11:16:12;29.73;;;15.07;;
40993;SDS011;26722;43.212;27.932;2023-12-04T11:18:44;28.45;;;14.50;;
40993;SDS011;26722;43.212;27.932;2023-12-04T11:21:16;27.55;;;14.25;;
40993;SDS011;26722;43.212;27.932;2023-12-04T11:23:43;27.77;;;14.13;;
40993;SDS011;26722;43.212;27.932;2023-12-04T11:26:09;28.02;;;14.57;;
40993;SDS011;26722;43.212;27.932;2023-12-04T11:28:36;30.65;;;14.13;;
40993;SDS011;26722;43.212;27.932;2023-12-04T11:31:03;28.75;;;13.98;;
40993;SDS011;26722;43.212;27.932;2023-12-04T11:33:36;30.90;;;14.70;;
40993;SDS011;26722;43.212;27.932;2023-12-04T11:36:09;29.83;;;15.32;;
40993;SDS011;26722;43.212;27.932;2023-12-04T11:38:43;32.22;;;14.98;;
40993;SDS011;26722;43.212;27.932;2023-12-04T11:41:20;30.02;;;14.85;;
40993;SDS011;26722;43.212;27.932;2023-12-04T11:43:46;28.00;;;13.73;;
40993;SDS011;26722;43.212;27.932;2023-12-04T11:46:13;33.15;;;14.25;;
40993;SDS011;26722;43.212;27.932;2023-12-04T11:48:45;28.00;;;14.13;;
40993;SDS011;26722;43.212;27.932;2023-12-04T11:51:12;34.83;;;15.90;;
40993;SDS011;26722;43.212;27.932;2023-12-04T11:54:00;29.05;;;14.80;;
40993;SDS011;26722;43.212;27.932;2023-12-04T11:56:25;32.92;;;14.45;;
40993;SDS011;26722;43.212;27.932;2023-12-04T11:58:51;36.55;;;15.52;;
40993;SDS011;26722;43.212;27.932;2023-12-04T12:01:17;31.63;;;14.85;;
40993;SDS011;26722;43.212;27.932;2023-12-04T12:03:43;31.80;;;15.15;;
40993;SDS011;26722;43.212;27.932;2023-12-04T12:06:09;35.92;;;16.33;;
40993;SDS011;26722;43.212;27.932;2023-12-04T12:08:34;33.00;;;14.95;;
40993;SDS011;26722;43.212;27.932;2023-12-04T12:11:00;32.35;;;16.35;;
40993;SDS011;26722;43.212;27.932;2023-12-04T12:13:26;32.15;;;15.63;;
40993;SDS011;26722;43.212;27.932;2023-12-04T12:15:52;32.08;;;15.18;;
40993;SDS011;26722;43.212;27.932;2023-12-04T12:18:18;36.15;;;16.60;;
40993;SDS011;26722;43.212;27.932;2023-12-04T12:20:43;32.00;;;14.30;;
40993;SDS011;26722;43.212;27.932;2023-12-04T12:23:09;34.55;;;15.02;;
40993;SDS011;26722;43.212;27.932;2023-12-04T12:25:34;29.95;;;14.18;;
40993;SDS011;26722;43.212;27.932;2023-12-04T12:28:04;34.72;;;15.55;;
40993;SDS011;26722;43.212;27.932;2023-12-04T12:30:30;30.55;;;15.43;;
40993;SDS011;26722;43.212;27.932;2023-12-04T12:32:56;32.13;;;15.60;;
40993;SDS011;26722;43.212;27.932;2023-12-04T12:35:21;34.20;;;15.43;;
40993;SDS011;26722;43.212;27.932;2023-12-04T12:37:48;30.27;;;15.05;;
40993;SDS011;26722;43.212;27.932;2023-12-04T12:40:14;33.90;;;15.57;;
40993;SDS011;26722;43.212;27.932;2023-12-04T12:42:39;29.77;;;14.25;;
40993;SDS011;26722;43.212;27.932;2023-12-04T12:45:06;29.08;;;14.77;;
40993;SDS011;26722;43.212;27.932;2023-12-04T12:47:35;29.60;;;14.52;;
40993;SDS011;26722;43.212;27.932;2023-12-04T12:50:01;34.15;;;15.57;;
40993;SDS011;26722;43.212;27.932;2023-12-04T12:52:27;36.58;;;15.05;;
40993;SDS011;26722;43.212;27.932;2023-12-04T12:54:54;31.85;;;14.07;;
40993;SDS011;26722;43.212;27.932;2023-12-04T12:57:19;30.45;;;14.88;;
40993;SDS011;26722;43.212;27.932;2023-12-04T12:59:45;31.00;;;14.63;;
40993;SDS011;26722;43.212;27.932;2023-12-04T13:02:10;35.00;;;15.23;;
40993;SDS011;26722;43.212;27.932;2023-12-04T13:04:36;27.33;;;13.00;;
40993;SDS011;26722;43.212;27.932;2023-12-04T13:07:03;27.33;;;14.38;;
40993;SDS011;26722;43.212;27.932;2023-12-04T13:09:30;31.15;;;13.75;;
40993;SDS011;26722;43.212;27.932;2023-12-04T13:11:56;28.38;;;14.05;;
40993;SDS011;26722;43.212;27.932;2023-12-04T13:14:22;27.95;;;14.38;;
40993;SDS011;26722;43.212;27.932;2023-12-04T13:16:47;30.38;;;13.40;;
40993;SDS011;26722;43.212;27.932;2023-12-04T13:19:12;28.88;;;13.15;;
40993;SDS011;26722;43.212;27.932;2023-12-04T13:21:38;31.52;;;14.30;;
40993;SDS011;26722;43.212;27.932;2023-12-04T13:24:03;24.48;;;12.73;;
40993;SDS011;26722;43.212;27.932;2023-12-04T13:26:32;24.20;;;12.57;;
40993;SDS011;26722;43.212;27.932;2023-12-04T13:28:58;29.58;;;14.55;;
40993;SDS011;26722;43.212;27.932;2023-12-04T13:31:24;28.83;;;13.73;;
40993;SDS011;26722;43.212;27.932;2023-12-04T13:33:50;26.13;;;12.75;;
40993;SDS011;26722;43.212;27.932;2023-12-04T13:36:15;29.30;;;14.18;;
40993;SDS011;26722;43.212;27.932;2023-12-04T13:38:40;26.75;;;13.27;;
40993;SDS011;26722;43.212;27.932;2023-12-04T13:41:06;33.20;;;12.73;;
40993;SDS011;26722;43.212;27.932;2023-12-04T13:44:04;28.83;;;13.90;;
40993;SDS011;26722;43.212;27.932;2023-12-04T13:46:30;33.90;;;14.80;;
40993;SDS011;26722;43.212;27.932;2023-12-04T13:48:56;35.22;;;15.65;;
40993;SDS011;26722;43.212;27.932;2023-12-04T13:51:22;28.92;;;13.70;;
40993;SDS011;26722;43.212;27.932;2023-12-04T13:53:48;29.08;;;14.05;;
40993;SDS011;26722;43.212;27.932;2023-12-04T13:56:15;26.58;;;13.80;;
40993;SDS011;26722;43.212;27.932;2023-12-04T13:59:00;29.13;;;13.77;;
40993;SDS011;26722;43.212;27.932;2023-12-04T14:01:28;30.05;;;14.07;;
40993;SDS011;26722;43.212;27.932;2023-12-04T14:03:54;31.35;;;14.90;;
40993;SDS011;26722;43.212;27.932;2023-12-04T14:06:30;26.90;;;13.32;;
40993;SDS011;26722;43.212;27.932;2023-12-04T14:08:56;25.85;;;12.93;;
40993;SDS011;26722;43.212;27.932;2023-12-04T14:11:22;25.75;;;13.25;;